createdAt,value
2022-10-08T06:59:26.611Z,10.41
2022-10-08T07:01:53.038Z,9.63
2022-10-08T07:04:19.433Z,9.55
2022-10-08T07:06:45.789Z,9.24
2022-10-08T07:09:12.232Z,9.05
2022-10-08T07:11:38.579Z,8.89
2022-10-08T07:14:04.938Z,8.71
2022-10-08T07:16:31.364Z,8.75
2022-10-08T07:18:57.779Z,8.84
2022-10-08T07:21:24.148Z,9.25
2022-10-08T07:23:50.510Z,9.16
2022-10-08T07:26:16.880Z,8.71
2022-10-08T07:28:43.293Z,9.05
2022-10-08T07:31:09.744Z,9.68
2022-10-08T07:33:36.151Z,9.88
2022-10-08T07:36:02.507Z,9.91
2022-10-08T07:38:28.867Z,10.17
2022-10-08T07:40:55.279Z,10.11
2022-10-08T07:43:21.628Z,9.85
2022-10-08T07:45:48.065Z,9.93
2022-10-08T07:48:14.519Z,10.06
2022-10-08T07:50:40.884Z,9.91
2022-10-08T07:53:07.273Z,9.66
2022-10-08T07:55:33.618Z,10.21
2022-10-08T07:58:00.002Z,10.44
2022-10-08T08:00:26.525Z,9.75
2022-10-08T08:02:52.982Z,10.08
2022-10-08T08:05:19.341Z,10.12
2022-10-08T08:07:49.679Z,10.22
2022-10-08T08:10:18.902Z,10.10
2022-10-08T08:12:45.602Z,9.86
2022-10-08T08:15:12.083Z,9.90
2022-10-08T08:17:38.445Z,10.16
2022-10-08T08:20:04.804Z,10.10
2022-10-08T08:22:31.181Z,9.59
2022-10-08T08:24:57.523Z,9.61
2022-10-08T08:27:23.916Z,9.83
2022-10-08T08:29:50.251Z,9.78
2022-10-08T08:32:16.689Z,10.00
2022-10-08T08:34:43.035Z,10.63
2022-10-08T08:37:09.374Z,10.64
2022-10-08T08:39:35.780Z,10.80
2022-10-08T08:42:02.166Z,9.42
2022-10-08T08:44:28.542Z,9.49
2022-10-08T08:46:54.897Z,9.24
2022-10-08T08:49:21.280Z,9.85
2022-10-08T08:51:47.645Z,9.69
2022-10-08T08:54:14.012Z,9.25
2022-10-08T08:56:40.408Z,9.85
2022-10-08T08:59:06.777Z,9.35
2022-10-08T09:01:33.246Z,9.22
2022-10-08T09:03:59.676Z,9.49
2022-10-08T09:06:26.040Z,10.16
2022-10-08T09:08:52.422Z,9.37
2022-10-08T09:11:18.797Z,9.59
2022-10-08T09:13:45.147Z,10.17
2022-10-08T09:16:11.536Z,10.87
2022-10-08T09:18:37.901Z,11.55
2022-10-08T09:21:04.278Z,13.26
2022-10-08T09:23:30.655Z,12.99
2022-10-08T09:25:57.030Z,12.68
2022-10-08T09:28:23.421Z,12.98
2022-10-08T09:30:50.001Z,12.66
2022-10-08T09:33:16.499Z,11.72
2022-10-08T09:35:42.882Z,12.15
2022-10-08T09:38:09.263Z,12.31
2022-10-08T09:40:35.630Z,12.50
2022-10-08T09:43:01.993Z,12.32
2022-10-08T09:45:28.350Z,12.53
2022-10-08T09:47:54.722Z,13.60
2022-10-08T09:50:21.107Z,13.29
2022-10-08T09:52:47.667Z,13.21
2022-10-08T09:55:14.107Z,13.12
2022-10-08T09:57:43.677Z,12.88
2022-10-08T10:00:10.305Z,12.74
2022-10-08T10:02:36.671Z,13.25
2022-10-08T10:05:03.036Z,12.19
2022-10-08T10:07:29.392Z,12.36
2022-10-08T10:09:55.763Z,12.58
2022-10-08T10:12:22.125Z,12.00
2022-10-08T10:14:48.499Z,12.34
2022-10-08T10:17:14.909Z,11.82
2022-10-08T10:19:41.281Z,12.36
2022-10-08T10:22:07.629Z,12.31
2022-10-08T10:24:33.988Z,12.18
2022-10-08T10:27:00.352Z,12.26
2022-10-08T10:29:26.737Z,12.43
2022-10-08T10:31:53.087Z,12.45
2022-10-08T10:34:19.451Z,12.52
2022-10-08T10:36:45.801Z,12.42
2022-10-08T10:39:12.190Z,12.55
2022-10-08T10:41:38.540Z,12.44
2022-10-08T10:44:04.906Z,12.13
2022-10-08T10:46:31.401Z,13.37
2022-10-08T10:48:57.783Z,12.71
2022-10-08T10:51:24.165Z,12.16
2022-10-08T10:53:50.544Z,12.37
2022-10-08T10:56:16.937Z,11.67
2022-10-08T10:58:43.296Z,11.39
2022-10-08T11:01:09.689Z,11.69
2022-10-08T11:03:36.095Z,11.68
2022-10-08T11:06:02.471Z,11.23
2022-10-08T11:08:28.839Z,11.11
2022-10-08T11:10:55.189Z,11.76
2022-10-08T11:13:21.561Z,11.61
2022-10-08T11:15:48.001Z,11.42
2022-10-08T11:18:14.395Z,11.28
2022-10-08T11:20:40.747Z,11.57
2022-10-08T11:23:07.149Z,11.34
2022-10-08T11:25:49.801Z,10.86
2022-10-08T11:28:20.001Z,10.83
2022-10-08T11:30:46.485Z,11.36
2022-10-08T11:33:12.886Z,11.05
2022-10-08T11:35:39.260Z,11.08
2022-10-08T11:38:05.612Z,11.12
2022-10-08T11:40:32.032Z,11.26
2022-10-08T11:42:58.392Z,11.34
2022-10-08T11:45:24.780Z,11.97
2022-10-08T11:47:51.169Z,11.61
2022-10-08T11:50:17.539Z,12.15
2022-10-08T11:52:44.088Z,12.50
2022-10-08T11:55:10.700Z,12.08
2022-10-08T11:58:06.606Z,12.61
2022-10-08T12:00:23.422Z,12.37
2022-10-08T12:02:50.182Z,12.86
2022-10-08T12:05:16.823Z,15.49
2022-10-08T12:07:43.180Z,12.83
2022-10-08T12:10:09.560Z,12.58
2022-10-08T12:12:35.930Z,12.52
2022-10-08T12:15:03.874Z,11.95
2022-10-08T12:17:30.240Z,12.74
2022-10-08T12:19:56.598Z,12.82
2022-10-08T12:22:22.986Z,12.00
2022-10-08T12:24:50.659Z,12.61
2022-10-08T12:27:17.445Z,12.63
2022-10-08T12:29:44.056Z,12.66
2022-10-08T12:32:10.400Z,12.14
2022-10-08T12:34:36.812Z,11.64
2022-10-08T12:37:03.155Z,11.59
2022-10-08T12:39:29.532Z,16.76
2022-10-08T12:41:55.948Z,12.19
2022-10-08T12:44:22.287Z,11.77
2022-10-08T12:46:50.586Z,10.73
2022-10-08T12:49:17.211Z,10.96
2022-10-08T12:51:43.578Z,12.01
2022-10-08T12:54:09.935Z,8.95
2022-10-08T12:56:36.275Z,8.57
2022-10-08T12:59:02.616Z,8.57
2022-10-08T13:01:29.069Z,9.01
2022-10-08T13:03:55.531Z,10.06
2022-10-08T13:06:21.972Z,9.69
2022-10-08T13:08:48.376Z,10.77
2022-10-08T13:11:14.739Z,11.09
2022-10-08T13:13:41.128Z,11.48
2022-10-08T13:16:07.525Z,11.79
2022-10-08T13:18:33.976Z,11.71
2022-10-08T13:21:00.386Z,11.70
2022-10-08T13:23:26.765Z,12.09
2022-10-08T13:25:53.116Z,12.38
2022-10-08T13:28:31.096Z,12.33
2022-10-08T13:31:05.898Z,11.64
2022-10-08T13:33:32.276Z,12.39
2022-10-08T13:35:58.648Z,11.95
2022-10-08T13:38:25.029Z,12.24
2022-10-08T13:40:51.626Z,12.15
2022-10-08T13:43:17.995Z,11.89
2022-10-08T13:45:44.363Z,11.84
2022-10-08T13:48:10.729Z,12.32
2022-10-08T13:50:37.089Z,12.17
2022-10-08T13:53:03.443Z,11.81
2022-10-08T13:55:29.809Z,11.47
2022-10-08T13:57:56.181Z,11.65
2022-10-08T14:00:22.541Z,11.59
2022-10-08T14:02:48.887Z,11.30
2022-10-08T14:05:15.318Z,10.66
2022-10-08T14:07:41.697Z,10.56
2022-10-08T14:10:08.049Z,10.23
2022-10-08T14:12:34.452Z,9.85
2022-10-08T14:15:00.797Z,9.81
2022-10-08T14:17:27.169Z,10.15
2022-10-08T14:19:53.538Z,10.42
2022-10-08T14:22:19.955Z,9.88
2022-10-08T14:24:46.440Z,9.67
2022-10-08T14:27:12.798Z,9.93
2022-10-08T14:29:39.175Z,9.48
2022-10-08T14:32:05.535Z,9.77
2022-10-08T14:34:31.922Z,9.26
2022-10-08T14:36:58.274Z,9.10
2022-10-08T14:39:24.627Z,8.81
2022-10-08T14:41:51.022Z,8.21
2022-10-08T14:44:17.379Z,7.92
2022-10-08T14:46:43.736Z,7.74
2022-10-08T14:49:10.077Z,7.20
2022-10-08T14:51:36.422Z,6.92
2022-10-08T14:54:02.798Z,6.43
2022-10-08T14:56:29.173Z,5.87
2022-10-08T14:58:55.560Z,5.79
2022-10-08T15:01:21.937Z,6.10
2022-10-08T15:03:48.453Z,6.29
2022-10-08T15:06:14.875Z,6.16
2022-10-08T15:08:41.226Z,6.14
2022-10-08T15:11:07.579Z,6.24
2022-10-08T15:13:33.959Z,6.54
2022-10-08T15:16:00.349Z,6.47
2022-10-08T15:18:26.752Z,6.79
2022-10-08T15:20:53.117Z,6.79
2022-10-08T15:23:19.505Z,6.65
2022-10-08T15:25:45.857Z,6.46
2022-10-08T15:28:12.307Z,6.30
2022-10-08T15:30:38.770Z,6.42
2022-10-08T15:33:05.133Z,6.35
2022-10-08T15:35:31.497Z,6.26
2022-10-08T15:37:57.834Z,6.62
2022-10-08T15:40:24.212Z,6.69
2022-10-08T15:42:50.551Z,6.57
2022-10-08T15:45:16.907Z,6.72
2022-10-08T15:47:43.247Z,6.30
2022-10-08T15:50:09.613Z,6.26
2022-10-08T15:52:35.982Z,5.95
2022-10-08T15:55:02.336Z,5.40
2022-10-08T15:57:28.703Z,5.27
2022-10-08T15:59:55.061Z,5.27
2022-10-08T16:02:21.507Z,4.77
2022-10-08T16:04:47.940Z,4.80
2022-10-08T16:07:14.326Z,5.18
2022-10-08T16:09:40.689Z,4.92
2022-10-08T16:12:07.046Z,4.98
2022-10-08T16:14:33.409Z,5.28
2022-10-08T16:16:59.869Z,5.35
2022-10-08T16:19:26.261Z,5.56
2022-10-08T16:21:52.614Z,5.43
2022-10-08T16:24:18.989Z,4.87
2022-10-08T16:26:45.349Z,5.48
2022-10-08T16:29:11.727Z,5.12
2022-10-08T16:31:38.096Z,5.08
2022-10-08T16:34:04.442Z,4.99
2022-10-08T16:36:30.795Z,5.26
2022-10-08T16:38:57.153Z,5.41
2022-10-08T16:41:24.674Z,5.82
2022-10-08T16:43:51.013Z,5.95
2022-10-08T16:46:17.439Z,6.34
2022-10-08T16:48:43.875Z,6.40
2022-10-08T16:51:10.239Z,6.23
2022-10-08T16:53:36.599Z,6.40
2022-10-08T16:56:02.968Z,6.79
2022-10-08T16:58:29.328Z,6.51
2022-10-08T17:00:55.697Z,6.39
2022-10-08T17:03:22.082Z,6.19
2022-10-08T17:05:48.437Z,6.44
2022-10-08T17:08:14.796Z,6.36
2022-10-08T17:10:41.136Z,6.33
2022-10-08T17:13:07.493Z,6.53
2022-10-08T17:15:33.915Z,5.93
2022-10-08T17:18:00.269Z,6.10
2022-10-08T17:20:26.633Z,5.95
2022-10-08T17:22:53.017Z,5.64
2022-10-08T17:25:19.378Z,5.54
2022-10-08T17:27:45.732Z,5.77
2022-10-08T17:30:12.095Z,5.61
2022-10-08T17:32:38.469Z,5.14
2022-10-08T17:35:04.811Z,5.01
2022-10-08T17:37:31.172Z,5.11
2022-10-08T17:39:57.568Z,4.70
2022-10-08T17:42:23.991Z,4.67
2022-10-08T17:44:50.349Z,4.44
2022-10-08T17:47:16.707Z,4.16
2022-10-08T17:49:43.059Z,4.24
2022-10-08T17:52:09.420Z,3.53
2022-10-08T17:54:35.780Z,3.87
2022-10-08T17:57:02.153Z,3.68
2022-10-08T17:59:28.530Z,3.43
2022-10-08T18:01:54.908Z,3.30
2022-10-08T18:04:21.267Z,3.23
2022-10-08T18:06:47.653Z,3.48
2022-10-08T18:09:14.020Z,3.49
2022-10-08T18:11:40.377Z,3.44
2022-10-08T18:14:06.745Z,3.42
2022-10-08T18:16:33.088Z,3.36
2022-10-08T18:18:59.463Z,3.12
2022-10-08T18:21:25.822Z,3.38
2022-10-08T18:23:52.177Z,3.14
2022-10-08T18:26:18.541Z,3.26
2022-10-08T18:28:44.967Z,3.40
2022-10-08T18:31:11.492Z,3.29
2022-10-08T18:33:37.913Z,2.92
2022-10-08T18:36:04.285Z,3.08
2022-10-08T18:38:30.644Z,3.19
2022-10-08T18:40:57.014Z,2.93
2022-10-08T18:43:23.381Z,2.94
2022-10-08T18:45:49.731Z,2.97
2022-10-08T18:48:16.093Z,2.85
2022-10-08T18:50:42.469Z,3.25
2022-10-08T18:53:08.823Z,3.09
2022-10-08T18:55:35.178Z,3.35
2022-10-08T18:58:01.542Z,3.25
2022-10-08T19:00:27.919Z,3.01
2022-10-08T19:02:54.389Z,3.05
2022-10-08T19:05:20.828Z,2.91
2022-10-08T19:07:47.197Z,3.66
2022-10-08T19:10:13.596Z,3.80
2022-10-08T19:12:39.949Z,4.15
2022-10-08T19:15:06.297Z,3.96
2022-10-08T19:17:32.660Z,5.13
2022-10-08T19:19:59.075Z,7.39
2022-10-08T19:22:25.429Z,3.78
2022-10-08T19:24:51.807Z,3.93
2022-10-08T19:27:18.193Z,3.85
2022-10-08T19:29:44.543Z,3.50
2022-10-08T19:32:10.932Z,3.49
2022-10-08T19:34:37.284Z,3.71
2022-10-08T19:37:03.664Z,3.56
2022-10-08T19:39:30.047Z,3.43
2022-10-08T19:41:56.404Z,3.37
2022-10-08T19:44:22.767Z,3.56
2022-10-08T19:46:49.226Z,3.38
2022-10-08T19:49:15.651Z,3.20
2022-10-08T19:51:42.006Z,3.43
2022-10-08T19:54:08.381Z,3.50
2022-10-08T19:56:34.719Z,3.33
2022-10-08T19:59:01.110Z,3.39
2022-10-08T20:01:27.537Z,3.78
2022-10-08T20:03:53.944Z,3.56
2022-10-08T20:06:24.352Z,4.14
2022-10-08T20:08:51.030Z,4.39
2022-10-08T20:11:17.395Z,4.47
2022-10-08T20:13:43.778Z,4.32
2022-10-08T20:16:10.184Z,4.85
2022-10-08T20:18:36.564Z,4.64
2022-10-08T20:21:03.009Z,4.52
2022-10-08T20:23:29.358Z,4.54
2022-10-08T20:25:55.713Z,4.69
2022-10-08T20:28:22.116Z,4.75
2022-10-08T20:30:48.581Z,4.69
2022-10-08T20:33:14.947Z,4.71
2022-10-08T20:35:41.345Z,4.25
2022-10-08T20:38:07.708Z,4.69
2022-10-08T20:40:34.141Z,4.57
2022-10-08T20:43:00.529Z,4.74
2022-10-08T20:45:26.892Z,4.43
2022-10-08T20:47:53.371Z,4.54
2022-10-08T20:50:19.753Z,4.71
2022-10-08T20:52:46.370Z,4.39
2022-10-08T20:55:12.983Z,4.28
2022-10-08T20:57:39.351Z,4.12
2022-10-08T21:00:05.743Z,4.18
2022-10-08T21:02:32.168Z,4.38
2022-10-08T21:04:58.596Z,4.15
2022-10-08T21:07:24.963Z,4.25
2022-10-08T21:09:51.319Z,4.31
2022-10-08T21:12:17.749Z,4.43
2022-10-08T21:14:44.099Z,3.89
2022-10-08T21:17:10.437Z,4.35
2022-10-08T21:19:36.790Z,5.12
2022-10-08T21:22:03.158Z,4.88
2022-10-08T21:24:29.527Z,4.33
2022-10-08T21:26:55.872Z,4.47
2022-10-08T21:29:22.220Z,4.04
2022-10-08T21:31:48.666Z,4.67
2022-10-08T21:34:15.088Z,4.42
2022-10-08T21:36:41.462Z,4.32
2022-10-08T21:39:07.837Z,4.26
2022-10-08T21:41:34.188Z,4.32
2022-10-08T21:44:00.544Z,4.19
2022-10-08T21:46:26.891Z,4.36
2022-10-08T21:48:53.235Z,3.95
2022-10-08T21:51:19.600Z,4.38
2022-10-08T21:53:45.949Z,4.42
2022-10-08T21:56:12.322Z,4.21
2022-10-08T21:58:38.686Z,4.68
2022-10-08T22:01:05.153Z,4.18
2022-10-08T22:03:31.581Z,4.57
2022-10-08T22:05:57.940Z,4.30
2022-10-08T22:08:24.318Z,4.34
2022-10-08T22:10:50.692Z,3.93
2022-10-08T22:13:17.067Z,4.36
2022-10-08T22:15:43.439Z,4.46
2022-10-08T22:18:09.778Z,4.41
2022-10-08T22:20:36.145Z,4.34
2022-10-08T22:23:02.506Z,4.64
2022-10-08T22:25:28.863Z,4.34
2022-10-08T22:27:55.224Z,4.29
2022-10-08T22:30:21.605Z,4.59
2022-10-08T22:32:48.131Z,4.47
2022-10-08T22:35:14.638Z,4.46
2022-10-08T22:37:41.001Z,4.76
2022-10-08T22:40:07.339Z,4.58
2022-10-08T22:42:33.698Z,4.95
2022-10-08T22:45:00.075Z,4.66
2022-10-08T22:47:26.445Z,4.73
2022-10-08T22:49:52.809Z,5.03
2022-10-08T22:52:19.167Z,4.79
2022-10-08T22:54:45.545Z,4.85
2022-10-08T22:57:11.883Z,5.05
2022-10-08T22:59:38.259Z,4.77
2022-10-08T23:02:04.639Z,4.67
2022-10-08T23:04:31.011Z,5.20
2022-10-08T23:06:57.377Z,5.22
2022-10-08T23:09:23.750Z,5.18
2022-10-08T23:11:50.114Z,5.18
2022-10-08T23:14:16.470Z,5.31
2022-10-08T23:16:42.893Z,5.09
2022-10-08T23:19:09.292Z,5.10
2022-10-08T23:21:35.693Z,5.24
2022-10-08T23:24:02.063Z,5.64
2022-10-08T23:26:28.427Z,5.93
2022-10-08T23:28:54.803Z,5.77
2022-10-08T23:31:21.227Z,5.67
2022-10-08T23:33:47.616Z,5.99
2022-10-08T23:36:13.976Z,5.80
2022-10-08T23:38:40.321Z,6.03
2022-10-08T23:41:06.669Z,6.08
2022-10-08T23:43:33.026Z,5.95
2022-10-08T23:45:59.477Z,6.24
2022-10-08T23:48:25.966Z,6.18
2022-10-08T23:50:52.324Z,6.44
2022-10-08T23:53:18.690Z,6.83
2022-10-08T23:55:45.054Z,6.66
2022-10-08T23:58:11.410Z,6.26
